createdAt,value
2022-09-14T00:02:52.609Z,99179.88
2022-09-14T00:06:54.506Z,99167.53
2022-09-14T00:10:56.244Z,99168.75
2022-09-14T00:14:57.938Z,99169.72
2022-09-14T00:19:06.534Z,99169.75
2022-09-14T00:23:08.378Z,99161.44
2022-09-14T00:27:10.371Z,99161.44
2022-09-14T00:31:12.406Z,99171.66
2022-09-14T00:35:14.224Z,99161.44
2022-09-14T00:39:17.521Z,99157.34
2022-09-14T00:43:19.186Z,99150.88
2022-09-14T00:47:20.952Z,99144.38
2022-09-14T00:51:22.804Z,99151.72
2022-09-14T00:55:24.859Z,99145.53
2022-09-14T00:59:28.998Z,99138.59
2022-09-14T01:03:30.747Z,99128.00
2022-09-14T01:07:45.397Z,99134.69
2022-09-14T01:12:14.514Z,99132.34
2022-09-14T01:16:31.106Z,99135.50
2022-09-14T01:20:38.744Z,99135.34
2022-09-14T01:24:48.845Z,99123.09
2022-09-14T01:29:38.586Z,99127.31
2022-09-14T01:33:46.453Z,99117.16
2022-09-14T01:37:51.784Z,99111.72
2022-09-14T01:41:53.929Z,99102.44
2022-09-14T01:46:11.583Z,99108.09
2022-09-14T01:50:20.905Z,99111.16
2022-09-14T01:54:45.142Z,99104.69
2022-09-14T01:59:02.067Z,99098.19
2022-09-14T02:03:26.470Z,99090.78
2022-09-14T02:07:34.491Z,99082.28
2022-09-14T02:11:43.374Z,99078.44
2022-09-14T02:15:51.435Z,99087.13
2022-09-14T02:20:06.359Z,99081.09
2022-09-14T02:24:08.171Z,99080.09
2022-09-14T02:28:09.952Z,99078.50
2022-09-14T02:32:39.642Z,99075.25
2022-09-14T02:36:50.143Z,99062.47
2022-09-14T02:41:13.010Z,99065.31
2022-09-14T02:45:26.902Z,99062.66
2022-09-14T02:49:41.722Z,99064.88
2022-09-14T02:54:17.855Z,99062.63
2022-09-14T02:58:19.675Z,99061.78
2022-09-14T03:02:21.824Z,99069.72
2022-09-14T03:06:24.467Z,99071.13
2022-09-14T03:10:26.952Z,99080.25
2022-09-14T03:14:28.634Z,99081.06
2022-09-14T03:18:30.372Z,99067.00
2022-09-14T03:22:32.942Z,99071.56
2022-09-14T03:26:38.562Z,99063.66
2022-09-14T03:30:40.365Z,99058.50
2022-09-14T03:34:42.069Z,99065.78
2022-09-14T03:38:52.359Z,99073.94
2022-09-14T03:42:54.167Z,99058.28
2022-09-14T03:46:56.079Z,99055.66
2022-09-14T03:51:01.496Z,99049.91
2022-09-14T03:55:04.234Z,99043.44
2022-09-14T03:59:08.662Z,99045.72
2022-09-14T04:03:10.462Z,99039.81
2022-09-14T04:07:12.278Z,99042.94
2022-09-14T04:11:16.965Z,99043.38
2022-09-14T04:15:18.719Z,99034.00
2022-09-14T04:19:20.452Z,99037.44
2022-09-14T04:23:22.802Z,99039.88
2022-09-14T04:27:24.652Z,99031.75
2022-09-14T04:31:26.650Z,99035.44
2022-09-14T04:35:28.556Z,99030.75
2022-09-14T04:39:30.348Z,99026.41
2022-09-14T04:43:32.041Z,99022.78
2022-09-14T04:47:33.773Z,99009.41
2022-09-14T04:51:36.172Z,99021.56
2022-09-14T04:55:38.106Z,99018.69
2022-09-14T04:59:39.890Z,99023.28
2022-09-14T05:03:42.253Z,99037.13
2022-09-14T05:07:44.068Z,99024.63
2022-09-14T05:11:46.074Z,99020.56
2022-09-14T05:15:47.859Z,99019.69
2022-09-14T05:19:49.630Z,99016.53
2022-09-14T05:24:00.986Z,99013.47
2022-09-14T05:28:03.044Z,99011.38
2022-09-14T05:32:05.190Z,99016.09
2022-09-14T05:36:08.396Z,99020.94
2022-09-14T05:40:11.089Z,99012.88
2022-09-14T05:44:12.870Z,99027.53
2022-09-14T05:48:14.655Z,99028.34
2022-09-14T05:52:16.359Z,99011.91
2022-09-14T05:56:18.829Z,99023.72
2022-09-14T06:00:21.700Z,99009.50
2022-09-14T06:04:23.632Z,99010.00
2022-09-14T06:08:25.388Z,99005.81
2022-09-14T06:12:28.048Z,99004.69
2022-09-14T06:16:29.851Z,98985.63
2022-09-14T06:20:31.642Z,98976.50
2022-09-14T06:24:33.435Z,98971.59
2022-09-14T06:28:35.529Z,98966.00
2022-09-14T06:32:37.186Z,98977.69
2022-09-14T06:36:38.910Z,98991.88
2022-09-14T06:40:51.503Z,98976.00
2022-09-14T06:44:53.175Z,98976.16
2022-09-14T06:49:04.633Z,98970.72
2022-09-14T06:53:06.497Z,98983.19
2022-09-14T06:57:08.411Z,98978.81
2022-09-14T07:01:17.002Z,98982.47
2022-09-14T07:05:20.276Z,98985.84
2022-09-14T07:09:22.130Z,98981.56
2022-09-14T07:13:23.943Z,98980.22
2022-09-14T07:17:25.662Z,98975.41
2022-09-14T07:21:27.842Z,98978.22
2022-09-14T07:25:29.575Z,98981.44
2022-09-14T07:29:31.439Z,98978.16
2022-09-14T07:33:33.513Z,98962.53
2022-09-14T07:37:35.274Z,98969.66
2022-09-14T07:41:37.184Z,98958.78
2022-09-14T07:45:39.062Z,98966.94
2022-09-14T07:49:40.750Z,98979.44
2022-09-14T07:53:43.236Z,98977.47
2022-09-14T07:57:56.130Z,98977.19
2022-09-14T08:01:58.555Z,98999.56
2022-09-14T08:06:02.046Z,99010.75
2022-09-14T08:10:04.026Z,98999.94
2022-09-14T08:14:11.395Z,98996.38
2022-09-14T08:18:14.595Z,98992.03
2022-09-14T08:22:16.278Z,98999.66
2022-09-14T08:26:20.843Z,98998.44
2022-09-14T08:30:25.632Z,98994.22
2022-09-14T08:34:27.453Z,98999.78
2022-09-14T08:38:29.568Z,98998.66
2022-09-14T08:42:31.358Z,98988.34
2022-09-14T08:46:39.797Z,98988.34
2022-09-14T08:50:41.843Z,98984.91
2022-09-14T08:54:44.164Z,99012.38
2022-09-14T08:59:00.779Z,99002.47
2022-09-14T09:03:29.516Z,98997.59
2022-09-14T09:07:55.980Z,98995.88
2022-09-14T09:11:57.685Z,98993.16
2022-09-14T09:16:02.573Z,99006.81
2022-09-14T09:20:26.326Z,99002.66
2022-09-14T09:24:43.497Z,99002.03
2022-09-14T09:29:01.233Z,98985.97
2022-09-14T09:33:03.053Z,98993.63
2022-09-14T09:37:04.942Z,98989.81
2022-09-14T09:41:12.619Z,98994.53
2022-09-14T09:45:14.999Z,98994.97
2022-09-14T09:49:38.504Z,98976.75
2022-09-14T09:53:55.856Z,98963.16
2022-09-14T09:57:57.635Z,98964.22
2022-09-14T10:02:23.176Z,98961.44
2022-09-14T10:06:24.958Z,98946.22
2022-09-14T10:10:35.998Z,98945.94
2022-09-14T10:14:37.987Z,98929.59
2022-09-14T10:18:49.165Z,98926.63
2022-09-14T10:22:51.231Z,98927.09
2022-09-14T10:26:53.027Z,98930.66
2022-09-14T10:31:15.966Z,98923.56
2022-09-14T10:35:17.783Z,98923.44
2022-09-14T10:39:38.169Z,98908.91
2022-09-14T10:44:05.361Z,98915.50
2022-09-14T10:48:46.014Z,98919.41
2022-09-14T10:53:29.177Z,98945.69
2022-09-14T10:58:04.233Z,98948.69
2022-09-14T11:02:47.125Z,98938.88
2022-09-14T11:06:51.572Z,98951.88
2022-09-14T11:11:22.912Z,98955.13
2022-09-14T11:15:49.708Z,98933.44
2022-09-14T11:20:22.488Z,98935.06
2022-09-14T11:24:26.214Z,98940.63
2022-09-14T11:28:41.338Z,98933.88
2022-09-14T11:32:51.831Z,98939.47
2022-09-14T11:37:01.610Z,98928.22
2022-09-14T11:41:18.183Z,98922.34
2022-09-14T11:45:34.718Z,98912.28
2022-09-14T11:50:07.200Z,98926.19
2022-09-14T11:54:19.093Z,98936.34
2022-09-14T11:58:25.665Z,98933.16
2022-09-14T12:02:30.205Z,98930.53
2022-09-14T12:06:31.966Z,98896.34
2022-09-14T12:11:06.625Z,98917.53
2022-09-14T12:15:24.732Z,98917.75
2022-09-14T12:19:27.009Z,98898.03
2022-09-14T12:23:37.986Z,98907.13
2022-09-14T12:27:41.059Z,98888.41
2022-09-14T12:31:48.149Z,98890.59
2022-09-14T12:35:49.870Z,98891.59
2022-09-14T12:40:24.422Z,98889.06
2022-09-14T12:44:38.388Z,98889.41
2022-09-14T12:48:49.305Z,98879.38
2022-09-14T12:53:21.521Z,98870.41
2022-09-14T12:57:55.350Z,98871.19
2022-09-14T13:02:51.144Z,98870.84
2022-09-14T13:06:53.037Z,98875.56
2022-09-14T13:10:54.801Z,98879.94
2022-09-14T13:14:59.243Z,98884.03
2022-09-14T13:19:03.575Z,98883.09
2022-09-14T13:23:39.176Z,98894.47
2022-09-14T13:27:41.173Z,98900.50
2022-09-14T13:31:44.765Z,98881.38
2022-09-14T13:35:50.843Z,98897.94
2022-09-14T13:39:54.940Z,98902.06
2022-09-14T13:43:57.070Z,98888.75
2022-09-14T13:47:58.828Z,98889.00
2022-09-14T13:52:49.778Z,98879.03
2022-09-14T13:57:27.047Z,98877.34
2022-09-14T14:01:29.175Z,98855.03
2022-09-14T14:05:42.397Z,98846.13
2022-09-14T14:09:53.426Z,98849.84
2022-09-14T14:13:55.131Z,98841.56
2022-09-14T14:17:59.442Z,98833.16
2022-09-14T14:22:28.099Z,98834.75
2022-09-14T14:26:30.003Z,98830.59
2022-09-14T14:30:40.482Z,98827.75
2022-09-14T14:34:46.719Z,98830.84
2022-09-14T14:38:49.143Z,98827.84
2022-09-14T14:42:51.078Z,98817.47
2022-09-14T14:46:52.808Z,98825.53
2022-09-14T14:50:55.726Z,98828.16
2022-09-14T14:55:01.402Z,98827.69
2022-09-14T14:59:21.108Z,98820.22
2022-09-14T15:03:23.085Z,98832.19
2022-09-14T15:07:28.153Z,98823.22
2022-09-14T15:11:32.934Z,98823.78
2022-09-14T15:15:34.775Z,98817.56
2022-09-14T15:19:36.583Z,98809.28
2022-09-14T15:23:38.966Z,98808.81
2022-09-14T15:27:41.504Z,98805.88
2022-09-14T15:31:46.371Z,98805.13
2022-09-14T15:35:58.842Z,98803.50
2022-09-14T15:40:04.504Z,98805.06
2022-09-14T15:44:08.189Z,98801.81
2022-09-14T15:48:17.142Z,98793.75
2022-09-14T15:52:21.722Z,98786.75
2022-09-14T15:56:23.597Z,98787.31
2022-09-14T16:00:29.091Z,98807.59
2022-09-14T16:04:40.382Z,98803.34
2022-09-14T16:08:42.241Z,98795.75
2022-09-14T16:12:44.112Z,98807.94
2022-09-14T16:16:48.218Z,98804.72
2022-09-14T16:20:49.984Z,98802.97
2022-09-14T16:24:51.842Z,98805.19
2022-09-14T16:28:59.546Z,98796.72
2022-09-14T16:33:03.885Z,98796.91
2022-09-14T16:37:06.057Z,98809.84
2022-09-14T16:41:19.825Z,98808.50
2022-09-14T16:45:21.663Z,98812.19
2022-09-14T16:49:27.546Z,98817.69
2022-09-14T16:53:37.174Z,98822.91
2022-09-14T16:57:44.112Z,98825.69
2022-09-14T17:01:49.699Z,98831.03
2022-09-14T17:06:03.981Z,98846.38
2022-09-14T17:10:06.404Z,98813.13
2022-09-14T17:14:09.567Z,98817.41
2022-09-14T17:18:11.565Z,98835.88
2022-09-14T17:22:14.165Z,98838.53
2022-09-14T17:26:19.593Z,98846.06
2022-09-14T17:30:23.802Z,98821.13
2022-09-14T17:34:25.796Z,98819.84
2022-09-14T17:38:29.500Z,98811.88
2022-09-14T17:42:34.372Z,98800.06
2022-09-14T17:46:41.465Z,98793.81
2022-09-14T17:50:49.245Z,98801.34
2022-09-14T17:54:52.318Z,98803.09
2022-09-14T17:59:13.342Z,98769.28
2022-09-14T18:03:18.451Z,98767.50
2022-09-14T18:07:20.253Z,98773.06
2022-09-14T18:11:24.675Z,98778.91
2022-09-14T18:15:27.678Z,98784.03
2022-09-14T18:19:29.995Z,98793.81
2022-09-14T18:23:40.864Z,98784.94
2022-09-14T18:27:42.595Z,98780.19
2022-09-14T18:31:44.669Z,98765.63
2022-09-14T18:35:46.548Z,98793.84
2022-09-14T18:39:48.643Z,98780.16
2022-09-14T18:43:54.162Z,98790.13
2022-09-14T18:47:58.780Z,98783.31
2022-09-14T18:52:03.136Z,98770.53
2022-09-14T18:56:14.668Z,98780.44
2022-09-14T19:00:19.426Z,98791.56
2022-09-14T19:04:21.340Z,98778.34
2022-09-14T19:08:23.319Z,98779.34
2022-09-14T19:12:25.327Z,98767.47
2022-09-14T19:16:27.598Z,98750.34
2022-09-14T19:20:48.688Z,98756.81
2022-09-14T19:24:51.655Z,98756.97
2022-09-14T19:28:53.615Z,98738.91
2022-09-14T19:32:58.232Z,98756.81
2022-09-14T19:37:02.869Z,98751.03
2022-09-14T19:41:05.789Z,98748.38
2022-09-14T19:45:08.826Z,98733.88
2022-09-14T19:49:23.537Z,98750.66
2022-09-14T19:53:37.407Z,98761.94
2022-09-14T19:57:42.660Z,98760.16
2022-09-14T20:01:50.008Z,98744.72
2022-09-14T20:06:26.219Z,98731.88
2022-09-14T20:10:28.041Z,98737.97
2022-09-14T20:14:32.347Z,98721.13
2022-09-14T20:18:34.249Z,98733.47
2022-09-14T20:22:36.113Z,98736.97
2022-09-14T20:26:38.305Z,98751.34
2022-09-14T20:31:06.693Z,98766.03
2022-09-14T20:35:09.816Z,98756.63
2022-09-14T20:39:13.079Z,98758.94
2022-09-14T20:43:18.202Z,98759.88
2022-09-14T20:47:19.969Z,98758.31
2022-09-14T20:51:25.044Z,98766.91
2022-09-14T20:55:30.109Z,98780.69
2022-09-14T20:59:32.148Z,98765.72
2022-09-14T21:03:34.466Z,98770.44
2022-09-14T21:07:36.216Z,98786.50
2022-09-14T21:11:38.127Z,98791.34
2022-09-14T21:15:40.140Z,98817.34
2022-09-14T21:19:42.088Z,98800.09
2022-09-14T21:23:44.024Z,98787.00
2022-09-14T21:27:45.739Z,98784.59
2022-09-14T21:31:48.807Z,98797.03
2022-09-14T21:35:50.560Z,98806.53
2022-09-14T21:39:53.939Z,98822.41
2022-09-14T21:43:56.464Z,98819.34
2022-09-14T21:47:58.217Z,98816.75
2022-09-14T21:52:00.321Z,98805.38
2022-09-14T21:56:05.858Z,98802.22
2022-09-14T22:00:09.815Z,98799.63
2022-09-14T22:04:21.711Z,98797.00
2022-09-14T22:08:23.509Z,98804.69
2022-09-14T22:12:25.430Z,98806.47
2022-09-14T22:16:28.797Z,98794.66
2022-09-14T22:20:30.607Z,98800.72
2022-09-14T22:24:38.328Z,98785.22
2022-09-14T22:28:40.820Z,98800.78
2022-09-14T22:32:42.520Z,98806.75
2022-09-14T22:36:44.345Z,98803.22
2022-09-14T22:40:46.111Z,98788.09
2022-09-14T22:44:48.988Z,98801.28
2022-09-14T22:48:51.699Z,98811.41
2022-09-14T22:52:53.885Z,98813.63
2022-09-14T22:56:55.704Z,98825.41
2022-09-14T23:00:57.527Z,98811.00
2022-09-14T23:04:59.299Z,98828.63
2022-09-14T23:09:01.138Z,98802.25
2022-09-14T23:13:02.862Z,98802.63
2022-09-14T23:17:04.603Z,98794.66
2022-09-14T23:21:07.017Z,98788.38
2022-09-14T23:25:09.585Z,98801.63
2022-09-14T23:29:16.004Z,98813.16
2022-09-14T23:33:17.780Z,98810.72
2022-09-14T23:37:19.495Z,98805.00
2022-09-14T23:41:22.725Z,98823.25
2022-09-14T23:45:24.424Z,98818.63
2022-09-14T23:49:26.261Z,98831.78
2022-09-14T23:53:28.264Z,98825.88
2022-09-14T23:57:30.184Z,98821.25
